createdAt,value
2019-02-17T00:01:48.148Z,2.20
2019-02-17T00:04:17.531Z,2.10
2019-02-17T00:06:47.058Z,2.10
2019-02-17T00:09:16.640Z,2.10
2019-02-17T00:11:45.956Z,2.10
2019-02-17T00:14:15.291Z,2.10
2019-02-17T00:16:44.674Z,2.20
2019-02-17T00:19:14.334Z,2.20
2019-02-17T00:21:43.751Z,2.20
2019-02-17T00:24:13.071Z,2.20
2019-02-17T00:26:42.509Z,2.20
2019-02-17T00:29:11.935Z,2.20
2019-02-17T00:31:41.709Z,2.20
2019-02-17T00:34:11.034Z,2.20
2019-02-17T00:36:40.363Z,2.20
2019-02-17T00:39:09.751Z,2.20
2019-02-17T00:41:39.112Z,2.20
2019-02-17T00:44:08.457Z,2.10
2019-02-17T00:46:37.658Z,2.10
2019-02-17T00:49:07.066Z,2.10
2019-02-17T00:51:36.380Z,2.10
2019-02-17T00:54:05.738Z,2.20
2019-02-17T00:56:35.130Z,2.20
2019-02-17T00:59:10.129Z,2.10
2019-02-17T01:01:35.582Z,2.20
2019-02-17T01:04:04.875Z,2.20
2019-02-17T01:06:34.394Z,2.10
2019-02-17T01:09:04.286Z,2.10
2019-02-17T01:11:33.697Z,2.10
2019-02-17T01:14:03.027Z,2.10
2019-02-17T01:16:32.323Z,2.10
2019-02-17T01:19:01.713Z,2.10
2019-02-17T01:21:31.142Z,2.10
2019-02-17T01:24:00.549Z,2.10
2019-02-17T01:26:30.050Z,2.10
2019-02-17T01:28:59.380Z,2.10
2019-02-17T01:31:28.794Z,2.00
2019-02-17T01:33:58.166Z,2.10
2019-02-17T01:36:27.458Z,2.10
2019-02-17T01:38:56.882Z,2.10
2019-02-17T01:41:29.301Z,2.10
2019-02-17T01:44:07.255Z,2.10
2019-02-17T01:46:38.416Z,2.10
2019-02-17T01:49:07.949Z,2.10
2019-02-17T01:51:37.351Z,2.10
2019-02-17T01:54:06.718Z,2.10
2019-02-17T01:56:36.013Z,2.10
2019-02-17T01:59:05.311Z,2.10
2019-02-17T02:01:34.752Z,2.10
2019-02-17T02:04:04.141Z,2.10
2019-02-17T02:06:33.555Z,2.20
2019-02-17T02:09:03.103Z,2.20
2019-02-17T02:11:32.419Z,2.20
2019-02-17T02:14:01.966Z,2.20
2019-02-17T02:16:31.265Z,2.20
2019-02-17T02:19:00.540Z,2.20
2019-02-17T02:21:29.883Z,2.20
2019-02-17T02:23:59.237Z,2.20
2019-02-17T02:26:28.605Z,2.30
2019-02-17T02:28:57.968Z,2.30
2019-02-17T02:31:27.386Z,2.30
2019-02-17T02:33:56.884Z,2.30
2019-02-17T02:36:26.299Z,2.30
2019-02-17T02:38:55.685Z,2.30
2019-02-17T02:41:34.355Z,2.20
2019-02-17T02:43:56.156Z,2.20
2019-02-17T02:46:25.466Z,2.10
2019-02-17T02:48:54.865Z,2.00
2019-02-17T02:51:24.243Z,2.00
2019-02-17T02:53:53.674Z,2.00
2019-02-17T02:56:23.037Z,2.00
2019-02-17T02:58:52.336Z,2.00
2019-02-17T03:01:21.736Z,2.00
2019-02-17T03:03:51.038Z,2.00
2019-02-17T03:06:27.296Z,2.00
2019-02-17T03:08:56.719Z,2.00
2019-02-17T03:11:26.138Z,2.00
2019-02-17T03:13:55.453Z,2.00
2019-02-17T03:16:24.870Z,2.00
2019-02-17T03:18:54.174Z,2.00
2019-02-17T03:21:23.622Z,2.00
2019-02-17T03:23:53.152Z,2.00
2019-02-17T03:26:22.526Z,2.00
2019-02-17T03:28:51.866Z,2.00
2019-02-17T03:31:21.230Z,2.00
2019-02-17T03:33:50.740Z,2.00
2019-02-17T03:36:20.138Z,2.10
2019-02-17T03:38:49.673Z,2.10
2019-02-17T03:41:19.094Z,2.10
2019-02-17T03:43:49.682Z,2.10
2019-02-17T03:46:20.294Z,2.10
2019-02-17T03:48:49.810Z,2.10
2019-02-17T03:51:19.121Z,2.10
2019-02-17T03:53:48.547Z,2.20
2019-02-17T03:56:17.884Z,2.20
2019-02-17T03:58:47.083Z,2.20
2019-02-17T04:01:16.607Z,2.20
2019-02-17T04:03:46.041Z,2.30
2019-02-17T04:06:15.428Z,2.30
2019-02-17T04:08:44.712Z,2.20
2019-02-17T04:11:14.126Z,2.20
2019-02-17T04:13:43.449Z,2.20
2019-02-17T04:16:12.989Z,2.20
2019-02-17T04:18:42.330Z,2.20
2019-02-17T04:21:11.537Z,2.20
2019-02-17T04:23:40.890Z,2.20
2019-02-17T04:26:10.165Z,2.20
2019-02-17T04:28:40.359Z,2.10
2019-02-17T04:31:27.478Z,2.20
2019-02-17T04:33:57.728Z,2.20
2019-02-17T04:36:27.150Z,2.20
2019-02-17T04:38:56.516Z,2.20
2019-02-17T04:41:25.967Z,2.20
2019-02-17T04:43:55.335Z,2.20
2019-02-17T04:46:24.691Z,2.20
2019-02-17T04:48:54.203Z,2.20
2019-02-17T04:51:23.627Z,2.20
2019-02-17T04:53:53.029Z,2.20
2019-02-17T04:56:22.380Z,2.20
2019-02-17T04:58:51.839Z,2.20
2019-02-17T05:01:21.201Z,2.20
2019-02-17T05:03:50.532Z,2.20
2019-02-17T05:06:20.299Z,2.10
2019-02-17T05:08:49.608Z,2.10
2019-02-17T05:11:19.108Z,2.10
2019-02-17T05:13:48.412Z,2.10
2019-02-17T05:16:17.744Z,2.00
2019-02-17T05:18:47.037Z,2.00
2019-02-17T05:21:16.439Z,1.90
2019-02-17T05:23:45.933Z,1.90
2019-02-17T05:26:15.382Z,1.90
2019-02-17T05:28:44.816Z,1.90
2019-02-17T05:31:14.290Z,1.90
2019-02-17T05:33:43.794Z,1.90
2019-02-17T05:36:13.319Z,1.80
2019-02-17T05:38:42.746Z,1.80
2019-02-17T05:41:12.089Z,1.80
2019-02-17T05:43:41.504Z,1.70
2019-02-17T05:46:10.882Z,1.80
2019-02-17T05:48:40.261Z,1.80
2019-02-17T05:51:09.687Z,1.70
2019-02-17T05:53:39.061Z,1.70
2019-02-17T05:56:08.517Z,1.70
2019-02-17T05:58:37.829Z,1.70
2019-02-17T06:01:26.416Z,1.60
2019-02-17T06:06:44.913Z,1.60
2019-02-17T06:09:14.286Z,1.60
2019-02-17T06:11:43.662Z,1.60
2019-02-17T06:14:12.968Z,1.60
2019-02-17T06:16:42.344Z,1.50
2019-02-17T06:19:11.695Z,1.50
2019-02-17T06:21:41.062Z,1.50
2019-02-17T06:24:10.320Z,1.50
2019-02-17T06:26:39.713Z,1.50
2019-02-17T06:29:09.118Z,1.50
2019-02-17T06:31:38.377Z,1.40
2019-02-17T06:34:07.747Z,1.50
2019-02-17T06:36:37.181Z,1.40
2019-02-17T06:39:07.306Z,1.50
2019-02-17T06:41:36.579Z,1.50
2019-02-17T06:44:05.916Z,1.50
2019-02-17T06:46:40.032Z,1.60
2019-02-17T06:49:14.495Z,1.50
2019-02-17T06:51:43.856Z,1.50
2019-02-17T06:54:13.241Z,1.50
2019-02-17T06:56:55.222Z,1.60
2019-02-17T06:59:24.587Z,1.60
2019-02-17T07:01:53.941Z,1.60
2019-02-17T07:04:35.849Z,1.70
2019-02-17T07:07:06.282Z,1.80
2019-02-17T07:09:35.799Z,2.30
2019-02-17T07:12:05.257Z,2.50
2019-02-17T07:14:35.176Z,2.70
2019-02-17T07:17:04.536Z,3.00
2019-02-17T07:19:33.996Z,3.40
2019-02-17T07:22:03.290Z,3.80
2019-02-17T07:24:32.626Z,4.20
2019-02-17T07:27:01.976Z,4.60
2019-02-17T07:29:31.428Z,5.00
2019-02-17T07:32:00.819Z,5.40
2019-02-17T07:34:30.219Z,5.80
2019-02-17T07:36:59.605Z,6.20
2019-02-17T07:39:28.974Z,6.70
2019-02-17T07:41:58.389Z,7.00
2019-02-17T07:44:27.825Z,7.40
2019-02-17T07:47:18.031Z,7.80
2019-02-17T07:49:47.461Z,8.30
2019-02-17T07:52:17.081Z,8.70
2019-02-17T07:54:46.639Z,9.10
2019-02-17T07:57:16.071Z,9.50
2019-02-17T08:00:09.812Z,9.90
2019-02-17T08:02:39.248Z,10.20
2019-02-17T08:05:10.167Z,10.60
2019-02-17T08:07:39.738Z,11.00
2019-02-17T08:10:09.423Z,11.30
2019-02-17T08:12:38.871Z,11.60
2019-02-17T08:15:08.819Z,11.80
2019-02-17T08:17:38.138Z,12.10
2019-02-17T08:20:08.969Z,12.40
2019-02-17T08:22:38.351Z,12.50
2019-02-17T08:25:08.312Z,12.70
2019-02-17T08:27:37.767Z,12.80
2019-02-17T08:30:08.565Z,13.00
2019-02-17T08:32:38.060Z,13.20
2019-02-17T08:35:07.559Z,13.40
2019-02-17T08:37:36.921Z,13.50
2019-02-17T08:40:07.679Z,13.70
2019-02-17T08:42:37.169Z,13.90
2019-02-17T08:45:06.944Z,14.10
2019-02-17T08:47:36.282Z,14.30
2019-02-17T08:50:06.780Z,14.60
2019-02-17T08:52:36.154Z,14.80
2019-02-17T08:55:06.477Z,15.00
2019-02-17T08:57:37.968Z,15.20
2019-02-17T09:00:08.458Z,15.50
2019-02-17T09:02:37.879Z,15.60
2019-02-17T09:05:07.280Z,15.60
2019-02-17T09:07:36.679Z,15.80
2019-02-17T09:10:07.705Z,16.00
2019-02-17T09:12:37.163Z,16.30
2019-02-17T09:15:07.977Z,16.40
2019-02-17T09:17:37.352Z,16.50
2019-02-17T09:20:08.075Z,16.70
2019-02-17T09:22:37.430Z,16.80
2019-02-17T09:25:08.400Z,16.90
2019-02-17T09:27:37.779Z,16.90
2019-02-17T09:30:11.026Z,17.00
2019-02-17T09:32:40.421Z,16.80
2019-02-17T09:35:09.834Z,16.90
2019-02-17T09:37:39.232Z,17.00
2019-02-17T09:40:10.027Z,17.10
2019-02-17T09:42:39.352Z,17.10
2019-02-17T09:45:10.536Z,17.30
2019-02-17T09:47:39.972Z,17.50
2019-02-17T09:50:11.155Z,17.70
2019-02-17T09:52:40.439Z,17.80
2019-02-17T09:55:10.074Z,17.80
2019-02-17T09:57:40.112Z,17.90
2019-02-17T10:00:11.451Z,18.00
2019-02-17T10:02:40.995Z,18.10
2019-02-17T10:05:10.376Z,18.20
2019-02-17T10:07:41.492Z,18.30
2019-02-17T10:10:13.042Z,18.50
2019-02-17T10:12:42.461Z,18.60
2019-02-17T10:15:12.910Z,18.70
2019-02-17T10:17:42.286Z,18.90
2019-02-17T10:20:11.865Z,18.80
2019-02-17T10:22:41.334Z,18.90
2019-02-17T10:25:11.310Z,19.10
2019-02-17T10:27:40.668Z,19.10
2019-02-17T10:30:14.164Z,19.20
2019-02-17T10:35:27.579Z,19.50
2019-02-17T10:37:56.940Z,19.30
2019-02-17T10:40:26.332Z,18.90
2019-02-17T10:42:55.661Z,18.60
2019-02-17T10:45:25.139Z,18.30
2019-02-17T10:47:55.285Z,18.00
2019-02-17T10:50:24.753Z,17.80
2019-02-17T10:52:54.145Z,17.60
2019-02-17T10:55:23.529Z,17.30
2019-02-17T10:57:52.895Z,17.00
2019-02-17T11:00:22.845Z,16.80
2019-02-17T11:02:52.152Z,16.50
2019-02-17T11:05:21.500Z,16.10
2019-02-17T11:07:51.075Z,15.90
2019-02-17T11:10:20.618Z,15.70
2019-02-17T11:12:50.412Z,15.50
2019-02-17T11:15:20.210Z,15.40
2019-02-17T11:17:49.940Z,15.20
2019-02-17T11:20:19.600Z,15.10
2019-02-17T11:22:48.878Z,14.90
2019-02-17T11:25:18.975Z,14.80
2019-02-17T11:27:48.354Z,14.70
2019-02-17T11:30:17.878Z,14.60
2019-02-17T11:32:57.184Z,14.50
2019-02-17T11:35:18.544Z,14.50
2019-02-17T11:37:47.974Z,14.50
2019-02-17T11:40:17.584Z,14.30
2019-02-17T11:42:47.011Z,14.30
2019-02-17T11:45:17.288Z,14.30
2019-02-17T11:47:46.709Z,14.20
2019-02-17T11:50:16.230Z,14.10
2019-02-17T11:53:04.665Z,14.10
2019-02-17T11:55:34.023Z,13.90
2019-02-17T11:58:03.387Z,13.90
2019-02-17T12:00:35.699Z,13.80
2019-02-17T12:03:07.894Z,13.70
2019-02-17T12:05:35.987Z,13.70
2019-02-17T12:08:05.282Z,13.60
2019-02-17T12:10:37.422Z,13.50
2019-02-17T12:13:06.688Z,13.50
2019-02-17T12:15:35.980Z,13.50
2019-02-17T12:18:05.462Z,13.40
2019-02-17T12:20:56.517Z,13.50
2019-02-17T12:23:35.655Z,13.50
2019-02-17T12:26:12.311Z,13.40
2019-02-17T12:28:52.431Z,13.30
2019-02-17T12:31:25.170Z,13.30
2019-02-17T12:33:54.572Z,13.30
2019-02-17T12:36:23.946Z,13.30
2019-02-17T12:38:53.367Z,13.20
2019-02-17T12:41:22.632Z,13.20
2019-02-17T12:43:51.988Z,13.20
2019-02-17T12:46:21.355Z,13.20
2019-02-17T12:48:50.671Z,13.10
2019-02-17T12:51:19.947Z,13.10
2019-02-17T12:53:49.248Z,13.10
2019-02-17T12:56:18.647Z,13.10
2019-02-17T12:58:48.023Z,13.10
2019-02-17T13:01:18.384Z,13.10
2019-02-17T13:03:47.635Z,13.10
2019-02-17T13:06:16.929Z,13.10
2019-02-17T13:08:46.235Z,13.10
2019-02-17T13:11:15.581Z,13.10
2019-02-17T13:13:44.803Z,13.10
2019-02-17T13:16:14.020Z,13.10
2019-02-17T13:18:46.734Z,13.10
2019-02-17T13:21:16.071Z,13.10
2019-02-17T13:23:45.491Z,13.10
2019-02-17T13:26:14.857Z,13.10
2019-02-17T13:28:44.479Z,13.10
2019-02-17T13:31:13.775Z,13.10
2019-02-17T13:33:43.096Z,13.10
2019-02-17T13:36:12.444Z,13.10
2019-02-17T13:38:41.741Z,13.10
2019-02-17T13:41:11.167Z,13.10
2019-02-17T13:43:40.404Z,13.10
2019-02-17T13:46:09.707Z,13.10
2019-02-17T13:48:39.033Z,13.10
2019-02-17T13:51:08.206Z,13.10
2019-02-17T13:53:37.475Z,13.10
2019-02-17T13:56:06.791Z,13.10
2019-02-17T13:58:36.262Z,13.10
2019-02-17T14:01:05.586Z,13.10
2019-02-17T14:03:34.897Z,13.10
2019-02-17T14:06:04.195Z,13.10
2019-02-17T14:08:33.544Z,13.10
2019-02-17T14:11:02.800Z,13.10
2019-02-17T14:13:32.517Z,13.00
2019-02-17T14:16:01.845Z,13.10
2019-02-17T14:18:31.379Z,13.00
2019-02-17T14:21:00.658Z,13.00
2019-02-17T14:23:30.656Z,13.00
2019-02-17T14:26:00.022Z,13.00
2019-02-17T14:28:29.438Z,13.00
2019-02-17T14:30:59.898Z,13.00
2019-02-17T14:33:29.194Z,12.90
2019-02-17T14:35:58.475Z,12.90
2019-02-17T14:38:27.943Z,12.90
2019-02-17T14:41:03.491Z,12.90
2019-02-17T14:43:33.349Z,13.00
2019-02-17T14:46:02.908Z,13.00
2019-02-17T14:48:32.507Z,13.00
2019-02-17T14:51:02.132Z,13.00
2019-02-17T14:53:34.078Z,13.00
2019-02-17T14:56:03.436Z,13.00
2019-02-17T14:58:33.030Z,13.00
2019-02-17T15:01:02.640Z,13.00
2019-02-17T15:03:32.353Z,13.00
2019-02-17T15:06:01.720Z,13.00
2019-02-17T15:08:31.230Z,12.90
2019-02-17T15:11:00.677Z,12.90
2019-02-17T15:13:29.931Z,12.90
2019-02-17T15:15:59.383Z,12.80
2019-02-17T15:18:28.761Z,12.80
2019-02-17T15:20:58.409Z,12.80
2019-02-17T15:23:27.737Z,12.70
2019-02-17T15:25:57.100Z,12.70
2019-02-17T15:28:26.673Z,12.70
2019-02-17T15:31:15.162Z,12.60
2019-02-17T15:33:44.777Z,12.60
2019-02-17T15:36:14.422Z,12.50
2019-02-17T15:38:45.676Z,12.50
2019-02-17T15:41:15.206Z,12.50
2019-02-17T15:43:44.563Z,12.40
2019-02-17T15:46:14.003Z,12.40
2019-02-17T15:48:43.404Z,12.30
2019-02-17T15:51:12.835Z,12.30
2019-02-17T15:53:42.294Z,12.20
2019-02-17T15:56:12.130Z,12.10
2019-02-17T15:58:41.551Z,12.00
2019-02-17T16:01:11.499Z,12.00
2019-02-17T16:03:40.879Z,11.90
2019-02-17T16:06:10.275Z,11.80
2019-02-17T16:08:39.614Z,11.80
2019-02-17T16:11:09.133Z,11.70
2019-02-17T16:13:38.986Z,11.60
2019-02-17T16:16:09.385Z,11.60
2019-02-17T16:18:38.947Z,11.50
2019-02-17T16:21:08.388Z,11.50
2019-02-17T16:23:37.816Z,11.40
2019-02-17T16:26:07.977Z,11.30
2019-02-17T16:28:37.390Z,11.20
2019-02-17T16:31:06.834Z,11.10
2019-02-17T16:33:36.270Z,11.10
2019-02-17T16:36:05.706Z,11.00
2019-02-17T16:38:35.075Z,10.90
2019-02-17T16:41:04.504Z,10.80
2019-02-17T16:43:34.069Z,10.70
2019-02-17T16:46:03.647Z,10.60
2019-02-17T16:48:33.039Z,10.60
2019-02-17T16:51:02.431Z,10.50
2019-02-17T16:53:31.775Z,10.50
2019-02-17T16:56:01.216Z,10.50
2019-02-17T16:58:30.809Z,10.40
2019-02-17T17:01:00.417Z,10.30
2019-02-17T17:03:29.858Z,10.20
2019-02-17T17:05:59.440Z,10.20
2019-02-17T17:08:28.911Z,10.10
2019-02-17T17:10:58.489Z,10.10
2019-02-17T17:13:27.837Z,10.00
2019-02-17T17:15:57.383Z,10.00
2019-02-17T17:18:27.036Z,9.90
2019-02-17T17:20:56.464Z,9.80
2019-02-17T17:23:27.363Z,9.80
2019-02-17T17:25:57.417Z,9.70
2019-02-17T17:28:26.898Z,9.70
2019-02-17T17:30:56.205Z,9.60
2019-02-17T17:33:25.594Z,9.60
2019-02-17T17:35:54.918Z,9.50
2019-02-17T17:38:24.381Z,9.40
2019-02-17T17:40:53.768Z,9.30
2019-02-17T17:43:23.141Z,9.30
2019-02-17T17:45:52.516Z,9.20
2019-02-17T17:48:22.128Z,9.10
2019-02-17T17:50:51.541Z,9.10
2019-02-17T17:53:21.178Z,9.00
2019-02-17T17:55:50.668Z,8.90
2019-02-17T17:58:20.136Z,8.80
2019-02-17T18:00:49.593Z,8.70
2019-02-17T18:03:19.133Z,8.70
2019-02-17T18:05:48.436Z,8.60
2019-02-17T18:08:17.968Z,8.60
2019-02-17T18:10:47.720Z,8.60
2019-02-17T18:13:17.362Z,8.50
2019-02-17T18:15:46.840Z,8.40
2019-02-17T18:18:16.346Z,8.40
2019-02-17T18:20:45.740Z,8.40
2019-02-17T18:23:15.167Z,8.30
2019-02-17T18:25:44.615Z,8.30
2019-02-17T18:28:13.960Z,8.30
2019-02-17T18:30:43.251Z,8.20
2019-02-17T18:33:12.661Z,8.20
2019-02-17T18:35:42.685Z,8.10
2019-02-17T18:38:12.347Z,8.10
2019-02-17T18:40:45.056Z,8.00
2019-02-17T18:43:14.474Z,7.90
2019-02-17T18:45:45.196Z,7.90
2019-02-17T18:48:14.832Z,7.80
2019-02-17T18:50:44.376Z,7.80
2019-02-17T18:53:15.458Z,7.70
2019-02-17T18:55:45.096Z,7.70
2019-02-17T18:58:14.577Z,7.60
2019-02-17T19:00:44.051Z,7.60
2019-02-17T19:03:13.433Z,7.50
2019-02-17T19:05:50.893Z,7.50
2019-02-17T19:08:20.312Z,7.40
2019-02-17T19:10:49.788Z,7.30
2019-02-17T19:13:19.275Z,7.30
2019-02-17T19:15:48.618Z,7.20
2019-02-17T19:18:18.039Z,7.20
2019-02-17T19:20:49.536Z,7.20
2019-02-17T19:23:19.904Z,7.10
2019-02-17T19:25:49.280Z,7.00
2019-02-17T19:28:18.839Z,7.00
2019-02-17T19:30:48.339Z,6.90
2019-02-17T19:33:17.983Z,6.90
2019-02-17T19:35:47.370Z,6.80
2019-02-17T19:38:16.919Z,6.80
2019-02-17T19:40:46.356Z,6.70
2019-02-17T19:43:15.872Z,6.70
2019-02-17T19:45:45.476Z,6.60
2019-02-17T19:48:15.082Z,6.60
2019-02-17T19:50:44.687Z,6.60
2019-02-17T19:53:14.536Z,6.50
2019-02-17T19:55:44.573Z,6.50
2019-02-17T19:58:15.232Z,6.40
2019-02-17T20:00:44.662Z,6.40
2019-02-17T20:03:28.233Z,6.30
2019-02-17T20:06:01.998Z,6.20
2019-02-17T20:08:31.454Z,6.20
2019-02-17T20:11:01.368Z,6.10
2019-02-17T20:13:31.123Z,6.10
2019-02-17T20:16:00.604Z,6.10
2019-02-17T20:18:30.138Z,6.00
2019-02-17T20:20:59.505Z,6.00
2019-02-17T20:23:29.241Z,5.90
2019-02-17T20:25:58.984Z,5.90
2019-02-17T20:28:40.622Z,5.80
2019-02-17T20:31:00.858Z,5.80
2019-02-17T20:33:30.334Z,5.70
2019-02-17T20:36:02.647Z,5.70
2019-02-17T20:38:31.148Z,5.70
2019-02-17T20:41:00.558Z,5.70
2019-02-17T20:43:30.424Z,5.60
2019-02-17T20:45:59.797Z,5.60
2019-02-17T20:48:29.279Z,5.60
2019-02-17T20:50:58.935Z,5.50
2019-02-17T20:53:28.612Z,5.50
2019-02-17T20:55:58.232Z,5.50
2019-02-17T20:58:27.686Z,5.40
2019-02-17T21:00:57.440Z,5.40
2019-02-17T21:03:27.006Z,5.30
2019-02-17T21:05:56.981Z,5.30
2019-02-17T21:08:26.424Z,5.30
2019-02-17T21:10:55.844Z,5.20
2019-02-17T21:13:25.321Z,5.20
2019-02-17T21:15:54.951Z,5.10
2019-02-17T21:18:24.355Z,5.10
2019-02-17T21:20:54.259Z,5.00
2019-02-17T21:23:23.874Z,5.10
2019-02-17T21:25:53.478Z,5.00
2019-02-17T21:28:22.980Z,5.00
2019-02-17T21:30:52.647Z,5.00
2019-02-17T21:33:22.351Z,4.90
2019-02-17T21:35:51.835Z,4.90
2019-02-17T21:38:21.592Z,4.80
2019-02-17T21:40:51.032Z,4.80
2019-02-17T21:43:20.718Z,4.80
2019-02-17T21:45:50.175Z,4.80
2019-02-17T21:48:19.552Z,4.70
2019-02-17T21:50:49.112Z,4.70
2019-02-17T21:53:20.718Z,4.70
2019-02-17T21:55:50.051Z,4.70
2019-02-17T21:58:19.601Z,4.60
2019-02-17T22:00:49.262Z,4.60
2019-02-17T22:03:18.914Z,4.60
2019-02-17T22:05:48.775Z,4.60
2019-02-17T22:08:18.307Z,4.50
2019-02-17T22:10:48.015Z,4.50
2019-02-17T22:13:17.589Z,4.40
2019-02-17T22:15:46.919Z,4.40
2019-02-17T22:18:16.490Z,4.40
2019-02-17T22:20:46.520Z,4.40
2019-02-17T22:23:16.146Z,4.30
2019-02-17T22:25:47.150Z,4.30
2019-02-17T22:28:16.786Z,4.30
2019-02-17T22:30:48.759Z,4.20
2019-02-17T22:33:18.179Z,4.20
2019-02-17T22:35:47.524Z,4.20
2019-02-17T22:38:16.784Z,4.20
2019-02-17T22:40:46.124Z,4.10
2019-02-17T22:43:15.553Z,4.10
2019-02-17T22:45:44.941Z,4.10
2019-02-17T22:48:14.475Z,4.00
2019-02-17T22:50:43.887Z,4.00
2019-02-17T22:53:14.417Z,3.90
2019-02-17T23:01:33.168Z,3.80
2019-02-17T23:04:02.571Z,3.80
2019-02-17T23:06:32.003Z,3.70
2019-02-17T23:09:01.411Z,3.70
2019-02-17T23:11:30.835Z,3.70
2019-02-17T23:14:00.159Z,3.60
2019-02-17T23:16:30.846Z,3.60
2019-02-17T23:19:00.753Z,3.60
2019-02-17T23:21:30.290Z,3.50
2019-02-17T23:23:59.662Z,3.50
2019-02-17T23:26:29.139Z,3.40
2019-02-17T23:28:58.745Z,3.40
2019-02-17T23:34:06.037Z,3.30
2019-02-17T23:36:53.261Z,3.30
2019-02-17T23:39:22.670Z,3.20
2019-02-17T23:41:52.003Z,3.20
2019-02-17T23:44:21.711Z,3.20
2019-02-17T23:46:51.043Z,3.20
2019-02-17T23:49:20.422Z,3.10
2019-02-17T23:51:49.770Z,3.10
2019-02-17T23:54:19.122Z,3.00
2019-02-17T23:56:48.482Z,3.00
2019-02-17T23:59:17.888Z,3.00
